Time;durP1;ratioP1;P1;durP2;ratioP2;P2;SDS_P1;SDS_P2;PMS_P1;PMS_P2;Temp;Humidity;BMP_temperature;BMP_pressure;BME280_temperature;BME280_humidity;BME280_pressure;Samples;Min_cycle;Max_cycle;Signal;HPM_P1;HPM_P2
2023/06/27 00:02:53;;;;;;;2.03;1.20;;;;;;;;;;8334202;28;20044;-62
2023/06/27 00:06:54;;;;;;;2.22;1.15;;;;;;;;;;8333516;28;20028;-61
2023/06/27 00:10:54;;;;;;;1.52;0.98;;;;;;;;;;8336706;28;20127;-61
2023/06/27 00:14:54;;;;;;;1.75;1.20;;;;;;;;;;8334121;28;20024;-61
2023/06/27 00:18:55;;;;;;;3.33;1.27;;;;;;;;;;8332792;28;20086;-61
2023/06/27 00:23:16;;;;;;;4.72;1.23;;;;;;;;;;8334853;28;20569;-61
2023/06/27 00:27:16;;;;;;;1.48;1.00;;;;;;;;;;8330093;28;20033;-61
2023/06/27 00:31:16;;;;;;;2.08;1.17;;;;;;;;;;8332418;28;20751;-61
2023/06/27 00:35:16;;;;;;;2.08;1.02;;;;;;;;;;8336964;28;20020;-61
2023/06/27 00:39:17;;;;;;;4.40;1.20;;;;;;;;;;8333304;28;20024;-61
2023/06/27 00:43:17;;;;;;;3.55;1.40;;;;;;;;;;8330861;28;20283;-61
2023/06/27 00:47:17;;;;;;;4.75;1.35;;;;;;;;;;8329894;28;20053;-61
2023/06/27 00:51:18;;;;;;;4.70;1.40;;;;;;;;;;8311256;28;20755;-61
2023/06/27 00:55:19;;;;;;;3.65;1.20;;;;;;;;;;8328300;28;20283;-61
2023/06/27 00:59:20;;;;;;;1.40;1.10;;;;;;;;;;8330234;28;20025;-61
2023/06/27 01:03:20;;;;;;;4.82;1.25;;;;;;;;;;8328212;28;20509;-61
2023/06/27 01:07:25;;;;;;;2.58;1.15;;;;;;;;;;8310475;28;20035;-61
2023/06/27 01:11:29;;;;;;;1.38;1.00;;;;;;;;;;8325106;28;20024;-62
2023/06/27 01:15:29;;;;;;;;;;;;;;;;;;8328519;28;20029;-61
2023/06/27 01:19:30;;;;;;;3.30;1.23;;;;;;;;;;8329840;28;20034;-61
2023/06/27 01:23:33;;;;;;;3.92;1.20;;;;;;;;;;8328070;28;20020;-62
2023/06/27 01:27:33;;;;;;;6.30;1.20;;;;;;;;;;8327887;28;20039;-61
2023/06/27 01:31:39;;;;;;;3.33;1.02;;;;;;;;;;8330907;28;20055;-62
2023/06/27 01:35:46;;;;;;;5.53;1.15;;;;;;;;;;8332427;28;20166;-61
2023/06/27 01:40:09;;;;;;;2.80;1.10;;;;;;;;;;8332252;28;20688;-61
2023/06/27 01:44:09;;;;;;;3.40;1.48;;;;;;;;;;8329454;28;20045;-61
2023/06/27 01:48:10;;;;;;;3.45;1.25;;;;;;;;;;8330347;28;20044;-61
2023/06/27 01:52:13;;;;;;;1.38;0.98;;;;;;;;;;8333803;28;20143;-61
2023/06/27 01:56:13;;;;;;;2.33;1.25;;;;;;;;;;8332483;28;20132;-61
2023/06/27 02:00:14;;;;;;;2.28;1.20;;;;;;;;;;8335118;28;20075;-61
2023/06/27 02:04:14;;;;;;;3.58;1.33;;;;;;;;;;8329724;28;20743;-62
2023/06/27 02:08:14;;;;;;;1.60;1.17;;;;;;;;;;8332278;28;20025;-61
2023/06/27 02:12:15;;;;;;;2.03;1.25;;;;;;;;;;8332391;28;20021;-61
2023/06/27 02:16:15;;;;;;;1.77;1.08;;;;;;;;;;8332646;28;20560;-61
2023/06/27 02:20:16;;;;;;;3.05;1.20;;;;;;;;;;8332425;28;20101;-61
2023/06/27 02:24:16;;;;;;;2.13;1.10;;;;;;;;;;8332380;28;20120;-61
2023/06/27 02:28:17;;;;;;;1.45;0.98;;;;;;;;;;8332503;28;20036;-61
2023/06/27 02:32:17;;;;;;;1.37;0.90;;;;;;;;;;8331525;28;20032;-61
2023/06/27 02:36:17;;;;;;;1.75;1.02;;;;;;;;;;8336155;28;20033;-61
2023/06/27 02:40:17;;;;;;;1.65;1.15;;;;;;;;;;8332848;28;20136;-61
2023/06/27 02:44:17;;;;;;;4.35;1.20;;;;;;;;;;8331397;28;20051;-61
2023/06/27 02:48:18;;;;;;;3.47;1.03;;;;;;;;;;8336039;28;20047;-61
2023/06/27 02:52:18;;;;;;;2.20;1.00;;;;;;;;;;8340591;28;20405;-61
2023/06/27 02:56:18;;;;;;;1.38;0.90;;;;;;;;;;8339473;28;20028;-61
2023/06/27 03:00:18;;;;;;;3.55;1.15;;;;;;;;;;8346179;28;20021;-61
2023/06/27 03:04:22;;;;;;;1.35;0.93;;;;;;;;;;8337377;28;20017;-61
2023/06/27 03:08:22;;;;;;;3.25;1.10;;;;;;;;;;8336794;28;20033;-61
2023/06/27 03:12:23;;;;;;;2.43;1.20;;;;;;;;;;8337030;28;20055;-61
2023/06/27 03:16:23;;;;;;;4.15;1.20;;;;;;;;;;8343064;28;20858;-61
2023/06/27 03:20:24;;;;;;;2.92;0.93;;;;;;;;;;8336849;28;20055;-61
2023/06/27 03:24:24;;;;;;;2.92;1.20;;;;;;;;;;8335116;28;20029;-61
2023/06/27 03:28:24;;;;;;;1.73;1.00;;;;;;;;;;8334053;28;20028;-61
2023/06/27 03:32:24;;;;;;;5.63;1.00;;;;;;;;;;8335411;28;20278;-61
2023/06/27 03:36:25;;;;;;;4.97;1.35;;;;;;;;;;8337048;28;20096;-61
2023/06/27 03:40:25;;;;;;;5.10;1.30;;;;;;;;;;8337387;28;20140;-61
2023/06/27 03:44:28;;;;;;;5.07;1.27;;;;;;;;;;8337325;28;20425;-61
2023/06/27 03:48:28;;;;;;;5.43;1.10;;;;;;;;;;8319187;28;20040;-61
2023/06/27 03:52:28;;;;;;;4.70;1.20;;;;;;;;;;8342677;28;20021;-61
2023/06/27 03:56:28;;;;;;;10.60;1.55;;;;;;;;;;8337611;28;20057;-61
2023/06/27 04:00:29;;;;;;;3.38;1.30;;;;;;;;;;8337808;28;20685;-61
2023/06/27 04:04:29;;;;;;;4.45;1.42;;;;;;;;;;8336637;28;20044;-61
2023/06/27 04:08:29;;;;;;;6.32;1.67;;;;;;;;;;8336531;28;20034;-61
2023/06/27 04:12:29;;;;;;;9.38;1.25;;;;;;;;;;8336503;28;20032;-61
2023/06/27 04:16:29;;;;;;;2.92;1.20;;;;;;;;;;8336927;28;20055;-61
2023/06/27 04:20:30;;;;;;;3.92;1.23;;;;;;;;;;8338376;28;20101;-61
2023/06/27 04:24:30;;;;;;;8.48;1.38;;;;;;;;;;8338458;28;20688;-61
2023/06/27 04:28:31;;;;;;;5.27;1.50;;;;;;;;;;8336621;28;20085;-61
2023/06/27 04:32:33;;;;;;;7.63;1.30;;;;;;;;;;8338597;28;20359;-61
2023/06/27 04:36:34;;;;;;;2.22;1.17;;;;;;;;;;8340269;28;20116;-61
2023/06/27 04:40:34;;;;;;;4.70;1.33;;;;;;;;;;8339903;28;20811;-61
2023/06/27 04:44:34;;;;;;;7.88;1.50;;;;;;;;;;8336523;28;20035;-61
2023/06/27 04:48:34;;;;;;;2.95;1.40;;;;;;;;;;8334660;28;20071;-62
2023/06/27 04:52:34;;;;;;;5.15;1.27;;;;;;;;;;8335263;28;20028;-61
2023/06/27 04:56:35;;;;;;;8.52;1.50;;;;;;;;;;8329593;28;20043;-61
2023/06/27 05:00:35;;;;;;;10.00;1.40;;;;;;;;;;8332766;28;20036;-61
2023/06/27 05:04:35;;;;;;;12.90;1.73;;;;;;;;;;8333081;28;20047;-61
2023/06/27 05:08:37;;;;;;;12.52;1.52;;;;;;;;;;8333930;28;20075;-62
2023/06/27 05:12:37;;;;;;;5.10;1.40;;;;;;;;;;8334304;28;20116;-61
2023/06/27 05:16:37;;;;;;;9.02;1.55;;;;;;;;;;8332654;28;21015;-61
2023/06/27 05:20:37;;;;;;;9.17;1.37;;;;;;;;;;8333653;28;20034;-61
2023/06/27 05:24:37;;;;;;;8.80;1.52;;;;;;;;;;8336345;28;20496;-61
2023/06/27 05:28:39;;;;;;;9.95;1.42;;;;;;;;;;8334516;28;20029;-61
2023/06/27 05:32:39;;;;;;;10.55;1.40;;;;;;;;;;8332272;28;20036;-61
2023/06/27 05:36:39;;;;;;;7.93;1.40;;;;;;;;;;8340034;28;20106;-61
2023/06/27 05:40:39;;;;;;;8.98;1.50;;;;;;;;;;8334605;28;20040;-61
2023/06/27 05:44:39;;;;;;;8.32;1.40;;;;;;;;;;8334178;28;20034;-61
2023/06/27 05:48:40;;;;;;;15.30;1.65;;;;;;;;;;8335542;28;20079;-62
2023/06/27 05:52:40;;;;;;;11.20;1.67;;;;;;;;;;8335903;28;20093;-61
2023/06/27 05:56:40;;;;;;;14.98;2.10;;;;;;;;;;8334085;28;20024;-61
2023/06/27 06:00:40;;;;;;;9.43;1.92;;;;;;;;;;8332989;28;20033;-61
2023/06/27 06:04:41;;;;;;;13.63;1.60;;;;;;;;;;8335738;28;20025;-61
2023/06/27 06:08:41;;;;;;;13.68;1.60;;;;;;;;;;8333419;28;20647;-61
2023/06/27 06:12:43;;;;;;;6.43;1.50;;;;;;;;;;8332967;28;20021;-61
2023/06/27 06:16:43;;;;;;;4.28;1.33;;;;;;;;;;8331736;28;20616;-61
2023/06/27 06:20:43;;;;;;;2.95;1.38;;;;;;;;;;8335316;28;20054;-61
2023/06/27 06:24:44;;;;;;;4.97;1.42;;;;;;;;;;8338921;28;20037;-61
2023/06/27 06:28:44;;;;;;;2.42;1.23;;;;;;;;;;8338748;28;20126;-61
2023/06/27 06:32:44;;;;;;;1.38;1.00;;;;;;;;;;8338518;28;20266;-62
2023/06/27 06:36:44;;;;;;;2.00;1.10;;;;;;;;;;8336771;28;20721;-61
2023/06/27 06:40:44;;;;;;;2.47;1.23;;;;;;;;;;8343324;28;20052;-61
2023/06/27 06:44:47;;;;;;;3.87;1.30;;;;;;;;;;8339374;28;20036;-61
2023/06/27 06:48:47;;;;;;;1.65;1.00;;;;;;;;;;8339590;28;20036;-61
2023/06/27 06:52:47;;;;;;;2.05;1.30;;;;;;;;;;8337340;28;20025;-61
2023/06/27 06:56:49;;;;;;;3.60;1.35;;;;;;;;;;8338192;28;20074;-61
2023/06/27 07:00:49;;;;;;;2.67;1.10;;;;;;;;;;8340326;28;20032;-61
2023/06/27 07:04:50;;;;;;;1.93;1.20;;;;;;;;;;8338837;28;20021;-61
2023/06/27 07:08:52;;;;;;;3.90;1.40;;;;;;;;;;8337291;28;20024;-61
2023/06/27 07:12:52;;;;;;;2.47;1.35;;;;;;;;;;8338053;28;20576;-61
2023/06/27 07:16:52;;;;;;;5.63;1.52;;;;;;;;;;8335846;28;20086;-61
2023/06/27 07:20:52;;;;;;;3.08;1.38;;;;;;;;;;8338556;28;20032;-61
2023/06/27 07:24:53;;;;;;;2.90;1.38;;;;;;;;;;8337302;28;20131;-61
2023/06/27 07:28:53;;;;;;;2.38;1.60;;;;;;;;;;8341727;28;20063;-61
2023/06/27 07:32:53;;;;;;;3.22;1.65;;;;;;;;;;8337136;28;20090;-61
2023/06/27 07:36:53;;;;;;;2.78;1.40;;;;;;;;;;8340038;28;20036;-61
2023/06/27 07:40:53;;;;;;;2.05;1.27;;;;;;;;;;8340663;28;20036;-61
2023/06/27 07:44:54;;;;;;;3.30;1.48;;;;;;;;;;8340791;28;20039;-61
2023/06/27 07:48:58;;;;;;;4.63;1.60;;;;;;;;;;8339183;28;20076;-61
2023/06/27 07:52:59;;;;;;;4.10;1.63;;;;;;;;;;8337803;28;20561;-61
2023/06/27 07:56:59;;;;;;;7.35;1.42;;;;;;;;;;8335540;28;20031;-61
2023/06/27 08:00:59;;;;;;;4.30;1.40;;;;;;;;;;8331564;28;20064;-61
2023/06/27 08:05:00;;;;;;;8.95;1.40;;;;;;;;;;8332452;28;20035;-61
2023/06/27 08:09:01;;;;;;;4.10;1.70;;;;;;;;;;8336792;28;20028;-61
2023/06/27 08:13:01;;;;;;;7.07;1.33;;;;;;;;;;8337399;28;20243;-61
2023/06/27 08:17:01;;;;;;;4.10;1.60;;;;;;;;;;8334083;28;20502;-61
2023/06/27 08:21:02;;;;;;;5.00;1.50;;;;;;;;;;8328631;28;20968;-61
2023/06/27 08:25:02;;;;;;;5.00;1.52;;;;;;;;;;8332530;28;20222;-62
2023/06/27 08:29:02;;;;;;;2.03;1.27;;;;;;;;;;8326907;28;20049;-61
2023/06/27 08:33:04;;;;;;;1.17;1.08;;;;;;;;;;8327113;28;20036;-61
2023/06/27 08:37:05;;;;;;;2.45;1.27;;;;;;;;;;8328711;28;20099;-61
2023/06/27 08:41:05;;;;;;;4.15;1.30;;;;;;;;;;8327841;28;20244;-61
2023/06/27 08:45:06;;;;;;;2.42;1.40;;;;;;;;;;8327450;28;20951;-62
2023/06/27 08:49:08;;;;;;;2.53;1.38;;;;;;;;;;8332723;28;20359;-61
2023/06/27 08:53:14;;;;;;;3.33;1.40;;;;;;;;;;8333289;28;20507;-61
2023/06/27 08:57:15;;;;;;;3.83;1.10;;;;;;;;;;8331560;28;20037;-61
2023/06/27 09:01:15;;;;;;;4.18;1.30;;;;;;;;;;8327002;28;20037;-61
2023/06/27 09:05:16;;;;;;;2.58;1.50;;;;;;;;;;8328283;28;20586;-61
2023/06/27 09:09:17;;;;;;;3.95;1.40;;;;;;;;;;8336760;28;20029;-60
2023/06/27 09:13:18;;;;;;;2.77;1.33;;;;;;;;;;8331661;28;20435;-61
2023/06/27 09:17:18;;;;;;;5.00;1.50;;;;;;;;;;8331649;28;20040;-60
2023/06/27 09:21:19;;;;;;;4.68;1.38;;;;;;;;;;8333131;28;20046;-60
2023/06/27 09:25:23;;;;;;;2.90;1.40;;;;;;;;;;8329078;28;20151;-60
2023/06/27 09:29:32;;;;;;;4.85;1.20;;;;;;;;;;8330797;28;20009;-60
2023/06/27 09:33:32;;;;;;;3.45;1.45;;;;;;;;;;8333730;28;20029;-61
2023/06/27 09:37:33;;;;;;;1.93;1.20;;;;;;;;;;8332891;28;20036;-61
2023/06/27 09:41:41;;;;;;;2.38;1.40;;;;;;;;;;8332447;28;20286;-61
2023/06/27 09:45:41;;;;;;;2.22;1.20;;;;;;;;;;8332696;28;20405;-61
2023/06/27 09:49:42;;;;;;;1.73;1.30;;;;;;;;;;8339487;28;20021;-62
2023/06/27 09:53:42;;;;;;;1.95;1.05;;;;;;;;;;8333357;28;20279;-61
2023/06/27 09:57:43;;;;;;;3.05;1.23;;;;;;;;;;8330569;28;20039;-60
2023/06/27 10:01:43;;;;;;;3.25;1.58;;;;;;;;;;8334191;28;20094;-61
2023/06/27 10:05:45;;;;;;;6.75;1.45;;;;;;;;;;8332259;28;20032;-60
2023/06/27 10:09:45;;;;;;;3.23;1.33;;;;;;;;;;8335563;28;20827;-60
2023/06/27 10:13:45;;;;;;;2.77;1.20;;;;;;;;;;8336342;28;20091;-57
2023/06/27 10:17:45;;;;;;;2.00;1.23;;;;;;;;;;8331665;28;20105;-61
2023/06/27 10:21:46;;;;;;;4.07;1.50;;;;;;;;;;8334919;28;20120;-61
2023/06/27 10:25:46;;;;;;;3.90;1.30;;;;;;;;;;8335153;28;20033;-61
2023/06/27 10:29:46;;;;;;;1.48;1.10;;;;;;;;;;8333652;28;20019;-60
2023/06/27 10:33:48;;;;;;;2.65;1.40;;;;;;;;;;8340410;28;20544;-60
2023/06/27 10:38:04;;;;;;;2.17;1.20;;;;;;;;;;8335193;28;20017;-60
2023/06/27 10:42:05;;;;;;;5.63;1.33;;;;;;;;;;8335103;28;20126;-60
2023/06/27 10:46:09;;;;;;;2.28;1.30;;;;;;;;;;8341856;28;20505;-60
2023/06/27 10:50:09;;;;;;;2.90;1.13;;;;;;;;;;8346655;28;20036;-61
2023/06/27 10:54:11;;;;;;;3.60;1.40;;;;;;;;;;8336079;28;20078;-62
2023/06/27 10:58:14;;;;;;;3.45;1.50;;;;;;;;;;8335055;28;20045;-60
2023/06/27 11:02:14;;;;;;;2.90;1.30;;;;;;;;;;8335724;28;20473;-61
2023/06/27 11:06:14;;;;;;;5.60;1.40;;;;;;;;;;8336102;28;20692;-61
2023/06/27 11:10:25;;;;;;;5.93;1.30;;;;;;;;;;8330639;28;20025;-61
2023/06/27 11:14:32;;;;;;;2.55;1.20;;;;;;;;;;8335983;28;20024;-61
2023/06/27 11:18:33;;;;;;;2.53;1.20;;;;;;;;;;8343149;28;20052;-61
2023/06/27 11:22:33;;;;;;;2.30;1.30;;;;;;;;;;8345714;28;20044;-61
2023/06/27 11:26:33;;;;;;;2.83;1.33;;;;;;;;;;8320223;28;20048;-61
2023/06/27 11:30:33;;;;;;;2.70;1.20;;;;;;;;;;8341400;28;20029;-61
2023/06/27 11:34:33;;;;;;;6.17;1.40;;;;;;;;;;8339932;28;20101;-61
2023/06/27 11:38:34;;;;;;;2.83;1.10;;;;;;;;;;8326555;28;20149;-61
2023/06/27 11:42:35;;;;;;;3.23;1.40;;;;;;;;;;8332707;28;20086;-62
2023/06/27 11:46:48;;;;;;;4.37;1.67;;;;;;;;;;8328903;28;20310;-61
2023/06/27 11:50:52;;;;;;;1.88;1.20;;;;;;;;;;8324642;28;20573;-61
2023/06/27 11:54:52;;;;;;;3.97;1.38;;;;;;;;;;8333903;28;20238;-62
2023/06/27 11:58:59;;;;;;;2.67;1.20;;;;;;;;;;8346372;28;20062;-61
2023/06/27 12:03:03;;;;;;;1.92;1.25;;;;;;;;;;8327547;28;20049;-61
2023/06/27 12:07:16;;;;;;;1.75;1.20;;;;;;;;;;8344415;28;20109;-61
2023/06/27 12:11:17;;;;;;;1.65;1.15;;;;;;;;;;8340173;28;20027;-62
2023/06/27 12:15:17;;;;;;;2.15;1.30;;;;;;;;;;8338588;28;20056;-62
2023/06/27 12:19:18;;;;;;;2.00;1.10;;;;;;;;;;8339186;28;20067;-62
2023/06/27 12:23:19;;;;;;;2.45;1.30;;;;;;;;;;8336048;28;20360;-61
2023/06/27 12:27:19;;;;;;;2.75;1.23;;;;;;;;;;8337298;28;20077;-61
2023/06/27 12:31:19;;;;;;;2.03;1.23;;;;;;;;;;8337684;28;20028;-61
2023/06/27 12:35:19;;;;;;;2.03;1.17;;;;;;;;;;8338074;28;20028;-61
2023/06/27 12:39:20;;;;;;;1.90;1.20;;;;;;;;;;8337180;28;20044;-61
2023/06/27 12:43:20;;;;;;;1.63;1.20;;;;;;;;;;8342600;28;20037;-61
2023/06/27 12:47:20;;;;;;;2.10;1.20;;;;;;;;;;8337265;28;20289;-61
2023/06/27 12:51:21;;;;;;;2.42;1.23;;;;;;;;;;8347324;28;20081;-61
2023/06/27 12:55:21;;;;;;;3.38;1.45;;;;;;;;;;8339428;28;20040;-61
2023/06/27 12:59:26;;;;;;;3.00;1.23;;;;;;;;;;8335915;28;20075;-61
2023/06/27 13:03:27;;;;;;;2.03;1.52;;;;;;;;;;8335498;28;20758;-61
2023/06/27 13:07:27;;;;;;;2.03;1.35;;;;;;;;;;8334793;28;20055;-61
2023/06/27 13:11:27;;;;;;;3.53;1.05;;;;;;;;;;8313623;28;20028;-62
2023/06/27 13:15:28;;;;;;;1.67;1.10;;;;;;;;;;8333712;28;20032;-62
2023/06/27 13:19:28;;;;;;;3.07;1.10;;;;;;;;;;8337851;28;20069;-61
2023/06/27 13:23:28;;;;;;;2.28;1.40;;;;;;;;;;8333478;28;20013;-61
2023/06/27 13:27:29;;;;;;;2.47;1.20;;;;;;;;;;8331663;28;20224;-61
2023/06/27 13:31:29;;;;;;;4.50;1.50;;;;;;;;;;8334565;28;20675;-61
2023/06/27 13:35:29;;;;;;;4.97;1.27;;;;;;;;;;8336862;28;20024;-61
2023/06/27 13:39:30;;;;;;;2.92;1.48;;;;;;;;;;8342919;28;20027;-61
2023/06/27 13:43:30;;;;;;;1.83;1.25;;;;;;;;;;8339845;28;20054;-61
2023/06/27 13:47:32;;;;;;;2.00;1.23;;;;;;;;;;8332254;28;20144;-62
2023/06/27 13:51:32;;;;;;;2.75;1.30;;;;;;;;;;8325686;28;20489;-61
2023/06/27 13:55:33;;;;;;;2.20;1.13;;;;;;;;;;8329479;28;20040;-61
2023/06/27 13:59:34;;;;;;;1.77;1.23;;;;;;;;;;8326660;28;20025;-61
2023/06/27 14:03:34;;;;;;;4.25;1.30;;;;;;;;;;8337573;28;20035;-62
2023/06/27 14:07:35;;;;;;;1.52;1.02;;;;;;;;;;8325117;28;20596;-61
2023/06/27 14:11:35;;;;;;;1.92;1.30;;;;;;;;;;8331633;28;20017;-61
2023/06/27 14:15:36;;;;;;;2.28;1.30;;;;;;;;;;8326041;28;20116;-61
2023/06/27 14:19:36;;;;;;;2.33;1.33;;;;;;;;;;8328917;28;20126;-61
2023/06/27 14:23:42;;;;;;;3.65;1.40;;;;;;;;;;8324783;28;20477;-61
2023/06/27 14:27:42;;;;;;;2.90;1.40;;;;;;;;;;8332877;28;20024;-60
2023/06/27 14:31:42;;;;;;;3.63;1.40;;;;;;;;;;8336216;28;20071;-60
2023/06/27 14:35:43;;;;;;;2.97;1.50;;;;;;;;;;8327676;28;20556;-61
2023/06/27 14:39:43;;;;;;;4.90;1.35;;;;;;;;;;8328402;28;20126;-61
2023/06/27 14:43:44;;;;;;;2.33;1.27;;;;;;;;;;8327855;28;20031;-61
2023/06/27 14:47:44;;;;;;;4.05;1.40;;;;;;;;;;8330432;28;20039;-61
2023/06/27 14:51:44;;;;;;;4.93;1.42;;;;;;;;;;8330147;28;20481;-61
2023/06/27 14:55:45;;;;;;;3.83;1.42;;;;;;;;;;8330657;28;20533;-61
2023/06/27 14:59:45;;;;;;;4.32;1.60;;;;;;;;;;8337836;28;20025;-62
2023/06/27 15:03:45;;;;;;;2.15;1.33;;;;;;;;;;8334800;28;20071;-61
2023/06/27 15:07:45;;;;;;;2.88;1.50;;;;;;;;;;8329328;28;20021;-61
2023/06/27 15:11:46;;;;;;;2.30;1.30;;;;;;;;;;8336757;28;20032;-61
2023/06/27 15:15:46;;;;;;;3.53;1.53;;;;;;;;;;8337584;28;20037;-62
2023/06/27 15:19:48;;;;;;;3.20;1.48;;;;;;;;;;8337756;28;20760;-61
2023/06/27 15:23:48;;;;;;;3.78;1.45;;;;;;;;;;8336035;28;20052;-62
2023/06/27 15:27:49;;;;;;;5.00;1.38;;;;;;;;;;8337602;28;20025;-61
2023/06/27 15:31:49;;;;;;;3.70;1.20;;;;;;;;;;8336705;28;20924;-62
2023/06/27 15:35:49;;;;;;;5.38;1.55;;;;;;;;;;8316353;28;20024;-61
2023/06/27 15:39:53;;;;;;;4.40;1.30;;;;;;;;;;8337235;28;20017;-61
2023/06/27 15:43:54;;;;;;;2.50;1.30;;;;;;;;;;8331454;28;20762;-61
2023/06/27 15:47:54;;;;;;;4.40;1.30;;;;;;;;;;8328562;28;20365;-62
2023/06/27 15:51:55;;;;;;;3.60;1.50;;;;;;;;;;8329427;28;20138;-62
2023/06/27 15:55:56;;;;;;;5.28;1.60;;;;;;;;;;8326818;28;20025;-61
2023/06/27 15:59:57;;;;;;;3.83;1.50;;;;;;;;;;8331609;28;20031;-61
2023/06/27 16:03:57;;;;;;;2.92;1.38;;;;;;;;;;8339190;28;20419;-61
2023/06/27 16:07:58;;;;;;;2.45;1.20;;;;;;;;;;8332454;28;20028;-61
2023/06/27 16:11:58;;;;;;;4.15;1.48;;;;;;;;;;8333301;28;20025;-61
2023/06/27 16:15:59;;;;;;;2.30;1.20;;;;;;;;;;8326891;28;20586;-62
2023/06/27 16:20:00;;;;;;;2.13;1.30;;;;;;;;;;8331159;28;20123;-61
2023/06/27 16:24:00;;;;;;;3.28;1.27;;;;;;;;;;8335622;28;20025;-61
2023/06/27 16:28:01;;;;;;;3.17;1.38;;;;;;;;;;8331776;28;20028;-61
2023/06/27 16:32:01;;;;;;;3.60;1.35;;;;;;;;;;8333799;28;20039;-61
2023/06/27 16:36:01;;;;;;;2.35;1.20;;;;;;;;;;8332844;28;20021;-61
2023/06/27 16:40:02;;;;;;;2.55;1.50;;;;;;;;;;8344243;28;20028;-61
2023/06/27 16:44:02;;;;;;;3.13;1.20;;;;;;;;;;8336311;28;20085;-61
2023/06/27 16:48:02;;;;;;;3.47;1.40;;;;;;;;;;8329224;28;20044;-62
2023/06/27 16:52:03;;;;;;;2.90;1.40;;;;;;;;;;8319773;28;20021;-61
2023/06/27 16:56:03;;;;;;;2.83;1.50;;;;;;;;;;8332431;28;20033;-61
2023/06/27 17:00:07;;;;;;;2.33;1.40;;;;;;;;;;8337493;28;20417;-62
2023/06/27 17:04:07;;;;;;;3.13;1.40;;;;;;;;;;8331513;28;20580;-61
2023/06/27 17:08:07;;;;;;;3.30;1.40;;;;;;;;;;8328262;28;20124;-61
2023/06/27 17:12:08;;;;;;;2.75;1.65;;;;;;;;;;8333340;28;20025;-61
2023/06/27 17:16:08;;;;;;;7.37;1.50;;;;;;;;;;8331156;28;20051;-62
2023/06/27 17:20:08;;;;;;;3.88;1.27;;;;;;;;;;8333847;28;20055;-61
2023/06/27 17:24:09;;;;;;;2.92;1.40;;;;;;;;;;8333251;28;20078;-61
2023/06/27 17:28:09;;;;;;;2.57;1.50;;;;;;;;;;8331714;28;20056;-62
2023/06/27 17:32:09;;;;;;;2.67;1.42;;;;;;;;;;8331442;28;20256;-61
2023/06/27 17:36:09;;;;;;;4.90;1.60;;;;;;;;;;8326151;28;20278;-61
2023/06/27 17:40:10;;;;;;;2.83;1.40;;;;;;;;;;8327995;28;20051;-61
2023/06/27 17:44:10;;;;;;;3.05;1.40;;;;;;;;;;8328858;28;20029;-61
2023/06/27 17:48:10;;;;;;;4.03;1.60;;;;;;;;;;8326622;28;20033;-61
2023/06/27 17:52:11;;;;;;;2.08;1.20;;;;;;;;;;8331396;28;20035;-61
2023/06/27 17:56:13;;;;;;;3.63;1.40;;;;;;;;;;8330591;28;20752;-61
2023/06/27 18:00:14;;;;;;;3.53;1.27;;;;;;;;;;8329841;28;20697;-61
2023/06/27 18:04:14;;;;;;;3.00;1.30;;;;;;;;;;8329760;28;20032;-61
2023/06/27 18:08:15;;;;;;;1.65;1.40;;;;;;;;;;8326180;28;20025;-61
2023/06/27 18:12:15;;;;;;;3.53;1.30;;;;;;;;;;8332231;28;20131;-61
2023/06/27 18:16:15;;;;;;;4.18;1.30;;;;;;;;;;8330722;28;20133;-61
2023/06/27 18:20:15;;;;;;;2.55;1.33;;;;;;;;;;8328219;28;20129;-62
2023/06/27 18:24:16;;;;;;;3.13;1.50;;;;;;;;;;8329279;28;20529;-61
2023/06/27 18:28:16;;;;;;;3.10;1.38;;;;;;;;;;8325417;28;20056;-61
2023/06/27 18:32:16;;;;;;;3.53;1.20;;;;;;;;;;8326542;28;20037;-61
2023/06/27 18:36:17;;;;;;;2.87;1.30;;;;;;;;;;8327337;28;20279;-61
2023/06/27 18:40:17;;;;;;;2.53;1.20;;;;;;;;;;8332955;28;20048;-61
2023/06/27 18:44:17;;;;;;;2.33;1.30;;;;;;;;;;8340409;28;20982;-61
2023/06/27 18:48:17;;;;;;;3.93;1.77;;;;;;;;;;8335370;28;20037;-61
2023/06/27 18:52:18;;;;;;;3.13;1.20;;;;;;;;;;8326610;28;20070;-61
2023/06/27 18:56:27;;;;;;;4.87;1.37;;;;;;;;;;8310334;28;20730;-61
2023/06/27 19:00:28;;;;;;;4.82;1.42;;;;;;;;;;8327095;28;20037;-61
2023/06/27 19:04:28;;;;;;;2.28;1.38;;;;;;;;;;8331710;28;20039;-60
2023/06/27 19:08:28;;;;;;;2.33;1.20;;;;;;;;;;8321849;28;20090;-60
2023/06/27 19:12:28;;;;;;;3.97;1.20;;;;;;;;;;8322736;28;20111;-62
2023/06/27 19:16:28;;;;;;;3.78;1.40;;;;;;;;;;8326278;28;20963;-61
2023/06/27 19:20:29;;;;;;;1.75;1.17;;;;;;;;;;8338863;28;20482;-62
2023/06/27 19:24:30;;;;;;;2.17;1.10;;;;;;;;;;8328354;28;20048;-61
2023/06/27 19:28:30;;;;;;;3.10;1.30;;;;;;;;;;8307972;28;20044;-61
2023/06/27 19:32:30;;;;;;;3.88;1.30;;;;;;;;;;8329900;28;20930;-61
2023/06/27 19:36:30;;;;;;;2.65;1.10;;;;;;;;;;8334671;28;21971;-61
2023/06/27 19:40:30;;;;;;;3.33;1.30;;;;;;;;;;8327803;28;20036;-61
2023/06/27 19:44:31;;;;;;;2.25;1.25;;;;;;;;;;8327137;28;20123;-61
2023/06/27 19:48:31;;;;;;;2.47;1.40;;;;;;;;;;8324998;28;20437;-61
2023/06/27 19:52:31;;;;;;;3.22;1.33;;;;;;;;;;8332637;28;20398;-62
2023/06/27 19:56:33;;;;;;;2.03;1.00;;;;;;;;;;8338699;28;20032;-61
2023/06/27 20:00:33;;;;;;;2.15;1.23;;;;;;;;;;8334661;28;20271;-61
2023/06/27 20:04:34;;;;;;;2.23;1.20;;;;;;;;;;8334898;28;20095;-61
2023/06/27 20:08:34;;;;;;;5.43;1.25;;;;;;;;;;8349009;28;20686;-62
2023/06/27 20:12:35;;;;;;;2.47;1.20;;;;;;;;;;8341267;28;20029;-62
2023/06/27 20:16:35;;;;;;;5.10;1.10;;;;;;;;;;8334752;28;20071;-61
2023/06/27 20:20:35;;;;;;;2.13;1.10;;;;;;;;;;8332918;28;20039;-61
2023/06/27 20:24:35;;;;;;;3.23;1.27;;;;;;;;;;8334772;28;20051;-61
2023/06/27 20:28:36;;;;;;;4.10;1.48;;;;;;;;;;8344251;28;20318;-62
2023/06/27 20:32:36;;;;;;;1.85;1.15;;;;;;;;;;8344625;28;20033;-61
2023/06/27 20:36:37;;;;;;;2.60;1.20;;;;;;;;;;8331829;28;20041;-61
2023/06/27 20:40:37;;;;;;;4.50;1.30;;;;;;;;;;8341719;28;20043;-62
2023/06/27 20:44:38;;;;;;;1.40;1.10;;;;;;;;;;8332033;28;20287;-62
2023/06/27 20:48:38;;;;;;;3.22;1.10;;;;;;;;;;8337889;28;20082;-61
2023/06/27 20:52:38;;;;;;;2.67;1.30;;;;;;;;;;8333239;28;20028;-61
2023/06/27 20:56:39;;;;;;;2.03;1.20;;;;;;;;;;8330446;28;20198;-61
2023/06/27 21:00:40;;;;;;;1.38;1.02;;;;;;;;;;8334404;28;20469;-61
2023/06/27 21:04:44;;;;;;;1.90;1.20;;;;;;;;;;8333640;28;20119;-61
2023/06/27 21:08:44;;;;;;;3.13;1.27;;;;;;;;;;8315172;28;20029;-61
2023/06/27 21:12:44;;;;;;;1.55;1.10;;;;;;;;;;8332918;28;20031;-61
2023/06/27 21:16:45;;;;;;;2.40;1.08;;;;;;;;;;8336943;28;20957;-61
2023/06/27 21:20:45;;;;;;;2.43;1.10;;;;;;;;;;8331981;28;20100;-61
2023/06/27 21:24:45;;;;;;;2.30;1.55;;;;;;;;;;8332071;28;20465;-61
2023/06/27 21:28:46;;;;;;;2.65;1.17;;;;;;;;;;8329910;28;20052;-61
2023/06/27 21:32:46;;;;;;;1.88;1.10;;;;;;;;;;8336070;28;20033;-61
2023/06/27 21:36:46;;;;;;;1.43;1.07;;;;;;;;;;8330645;28;20021;-61
2023/06/27 21:40:46;;;;;;;3.90;1.20;;;;;;;;;;8311706;28;20306;-61
2023/06/27 21:44:47;;;;;;;1.40;1.20;;;;;;;;;;8324980;28;20040;-61
2023/06/27 21:48:50;;;;;;;3.22;1.48;;;;;;;;;;8324888;28;20037;-61
2023/06/27 21:52:50;;;;;;;2.17;1.33;;;;;;;;;;8323097;28;20234;-61
2023/06/27 21:56:50;;;;;;;2.03;1.13;;;;;;;;;;8326233;28;20083;-61
2023/06/27 22:00:50;;;;;;;3.40;1.30;;;;;;;;;;8323517;28;20068;-61
2023/06/27 22:04:54;;;;;;;3.33;1.27;;;;;;;;;;8324515;28;20032;-61
2023/06/27 22:08:54;;;;;;;3.88;1.15;;;;;;;;;;8325937;28;20504;-61
2023/06/27 22:12:54;;;;;;;10.65;1.30;;;;;;;;;;8328247;28;20027;-61
2023/06/27 22:16:55;;;;;;;4.07;1.30;;;;;;;;;;8328729;28;20110;-61
2023/06/27 22:20:55;;;;;;;6.30;1.73;;;;;;;;;;8324923;28;20028;-61
2023/06/27 22:24:56;;;;;;;4.05;1.40;;;;;;;;;;8330214;28;21224;-61
2023/06/27 22:28:56;;;;;;;2.17;1.15;;;;;;;;;;8317754;28;20029;-61
2023/06/27 22:32:56;;;;;;;3.78;1.50;;;;;;;;;;8320188;28;20061;-61
2023/06/27 22:36:57;;;;;;;4.85;1.10;;;;;;;;;;8319668;28;20029;-61
2023/06/27 22:40:57;;;;;;;2.78;1.10;;;;;;;;;;8326753;28;20118;-61
2023/06/27 22:44:57;;;;;;;2.17;1.27;;;;;;;;;;8332948;28;20059;-61
2023/06/27 22:48:57;;;;;;;2.40;1.30;;;;;;;;;;8323673;28;20075;-61
2023/06/27 22:52:58;;;;;;;3.57;1.47;;;;;;;;;;8331721;28;20025;-61
2023/06/27 22:56:58;;;;;;;2.55;1.13;;;;;;;;;;8333115;28;20285;-61
2023/06/27 23:00:58;;;;;;;1.92;1.20;;;;;;;;;;8321910;28;20033;-61
2023/06/27 23:04:58;;;;;;;3.38;1.33;;;;;;;;;;8332516;28;20596;-61
2023/06/27 23:08:59;;;;;;;3.05;1.30;;;;;;;;;;8325601;28;20058;-61
2023/06/27 23:12:59;;;;;;;2.90;1.35;;;;;;;;;;8330452;28;20108;-61
2023/06/27 23:16:59;;;;;;;3.20;1.25;;;;;;;;;;8338285;28;20113;-61
2023/06/27 23:21:02;;;;;;;2.17;1.10;;;;;;;;;;8340045;28;20052;-61
2023/06/27 23:25:05;;;;;;;3.65;1.30;;;;;;;;;;8343692;28;20020;-61
2023/06/27 23:29:06;;;;;;;3.53;1.20;;;;;;;;;;8340502;28;20370;-61
2023/06/27 23:33:07;;;;;;;3.38;1.10;;;;;;;;;;8338283;28;20056;-61
2023/06/27 23:37:09;;;;;;;3.03;1.45;;;;;;;;;;8340914;28;20031;-61
2023/06/27 23:41:10;;;;;;;2.05;1.20;;;;;;;;;;8339592;28;20809;-61
2023/06/27 23:45:10;;;;;;;2.63;1.33;;;;;;;;;;8338155;28;20203;-62
2023/06/27 23:49:10;;;;;;;2.10;1.20;;;;;;;;;;8343971;28;20326;-61
2023/06/27 23:53:10;;;;;;;3.80;1.23;;;;;;;;;;8340647;28;20043;-61
2023/06/27 23:57:11;;;;;;;4.03;1.10;;;;;;;;;;8338455;28;20043;-61
